createdAt,value
2023-05-18T00:00:19.516Z,12.49
2023-05-18T00:05:11.804Z,12.47
2023-05-18T00:10:03.648Z,12.43
2023-05-18T00:14:55.327Z,12.42
2023-05-18T00:19:46.996Z,12.41
2023-05-18T00:24:38.685Z,12.36
2023-05-18T00:29:30.319Z,12.31
2023-05-18T00:34:21.944Z,12.29
2023-05-18T00:39:13.579Z,12.25
2023-05-18T00:44:05.336Z,12.23
2023-05-18T00:48:57.477Z,12.23
2023-05-18T00:53:51.099Z,12.23
2023-05-18T00:58:42.970Z,12.23
2023-05-18T01:03:34.614Z,12.23
2023-05-18T01:08:27.439Z,12.19
2023-05-18T01:13:31.175Z,12.16
2023-05-18T01:18:30.419Z,12.14
2023-05-18T01:23:45.291Z,12.09
2023-05-18T01:28:37.162Z,12.05
2023-05-18T01:33:28.851Z,12.03
2023-05-18T01:38:23.804Z,12.03
2023-05-18T01:43:20.434Z,12.04
2023-05-18T01:48:18.721Z,12.03
2023-05-18T01:53:20.655Z,11.98
2023-05-18T01:58:13.457Z,11.93
2023-05-18T02:03:05.612Z,11.89
2023-05-18T02:07:58.207Z,11.85
2023-05-18T02:12:52.755Z,11.76
2023-05-18T02:17:44.799Z,11.74
2023-05-18T02:22:37.133Z,11.68
2023-05-18T02:27:28.884Z,11.61
2023-05-18T02:32:20.742Z,11.55
2023-05-18T02:37:13.449Z,11.49
2023-05-18T02:42:05.468Z,11.44
2023-05-18T02:46:57.271Z,11.44
2023-05-18T02:51:48.913Z,11.42
2023-05-18T02:56:41.847Z,11.43
2023-05-18T03:01:36.962Z,11.45
2023-05-18T03:06:30.464Z,11.45
2023-05-18T03:11:23.209Z,11.47
2023-05-18T03:16:15.304Z,11.46
2023-05-18T03:21:08.105Z,11.46
2023-05-18T03:26:02.655Z,11.47
2023-05-18T03:30:54.844Z,11.45
2023-05-18T03:35:48.465Z,11.41
2023-05-18T03:40:40.451Z,11.37
2023-05-18T03:45:32.380Z,11.31
2023-05-18T03:50:24.294Z,11.32
2023-05-18T03:55:17.310Z,11.26
2023-05-18T04:00:12.501Z,11.22
2023-05-18T04:05:05.381Z,11.20
2023-05-18T04:09:57.170Z,11.20
2023-05-18T04:14:49.721Z,11.22
2023-05-18T04:19:42.150Z,11.23
2023-05-18T04:24:37.354Z,11.23
2023-05-18T04:29:29.839Z,11.24
2023-05-18T04:34:21.442Z,11.26
2023-05-18T04:39:13.296Z,11.27
2023-05-18T04:44:04.995Z,11.32
2023-05-18T04:48:58.126Z,11.41
2023-05-18T04:53:50.297Z,11.49
2023-05-18T04:58:46.121Z,11.50
2023-05-18T05:03:37.820Z,11.54
2023-05-18T05:08:29.526Z,11.56
2023-05-18T05:13:21.810Z,11.64
2023-05-18T05:18:13.489Z,11.70
2023-05-18T05:23:05.152Z,11.73
2023-05-18T05:27:57.991Z,11.74
2023-05-18T05:32:49.752Z,11.90
2023-05-18T05:37:41.851Z,12.03
2023-05-18T05:42:33.900Z,12.22
2023-05-18T05:47:25.725Z,12.46
2023-05-18T05:52:17.536Z,12.75
2023-05-18T05:57:09.143Z,13.07
2023-05-18T06:02:00.844Z,13.31
2023-05-18T06:06:52.521Z,13.49
2023-05-18T06:11:44.204Z,13.66
2023-05-18T06:16:35.941Z,13.89
2023-05-18T06:21:27.615Z,14.07
2023-05-18T06:26:19.301Z,14.37
2023-05-18T06:31:11.180Z,14.82
2023-05-18T06:36:03.263Z,15.29
2023-05-18T06:40:54.871Z,15.73
2023-05-18T06:45:47.008Z,16.34
2023-05-18T06:50:38.716Z,17.01
2023-05-18T06:55:30.688Z,17.57
2023-05-18T07:00:22.525Z,18.33
2023-05-18T07:05:15.073Z,18.94
2023-05-18T07:10:07.329Z,19.15
2023-05-18T07:14:59.013Z,19.48
2023-05-18T07:19:50.808Z,20.11
2023-05-18T07:24:43.288Z,20.71
2023-05-18T07:29:35.025Z,21.28
2023-05-18T07:34:27.332Z,21.92
2023-05-18T07:39:19.843Z,22.30
2023-05-18T07:44:12.221Z,22.69
2023-05-18T07:49:03.925Z,23.26
2023-05-18T07:53:55.634Z,23.68
2023-05-18T07:58:47.336Z,24.40
2023-05-18T08:03:39.181Z,24.62
2023-05-18T08:08:30.952Z,25.02
2023-05-18T08:13:22.623Z,25.27
2023-05-18T08:18:14.458Z,25.64
2023-05-18T08:23:06.141Z,26.19
2023-05-18T08:27:57.863Z,26.56
2023-05-18T08:32:49.596Z,26.67
2023-05-18T08:37:41.726Z,26.22
2023-05-18T08:42:49.328Z,26.05
2023-05-18T08:47:41.994Z,26.21
2023-05-18T08:52:37.190Z,26.43
2023-05-18T08:57:31.153Z,26.54
2023-05-18T09:02:23.291Z,26.58
2023-05-18T09:07:16.125Z,27.04
2023-05-18T09:12:08.553Z,27.40
2023-05-18T09:17:00.844Z,27.18
2023-05-18T09:21:52.409Z,27.05
2023-05-18T09:26:44.134Z,27.14
2023-05-18T09:31:37.225Z,26.83
2023-05-18T09:36:32.434Z,26.78
2023-05-18T09:41:26.595Z,26.77
2023-05-18T09:46:20.777Z,26.59
2023-05-18T09:51:16.576Z,26.73
2023-05-18T09:56:12.029Z,26.61
2023-05-18T10:01:03.908Z,26.42
2023-05-18T10:05:55.650Z,26.32
2023-05-18T10:10:49.249Z,26.26
2023-05-18T10:15:49.875Z,26.14
2023-05-18T10:20:43.100Z,26.13
2023-05-18T10:25:36.369Z,25.94
2023-05-18T10:30:28.522Z,25.45
2023-05-18T10:35:21.885Z,25.38
2023-05-18T10:40:15.464Z,25.48
2023-05-18T10:45:09.462Z,25.41
2023-05-18T10:50:03.245Z,25.52
2023-05-18T10:54:55.180Z,25.75
2023-05-18T10:59:48.607Z,26.19
2023-05-18T11:04:40.967Z,25.98
2023-05-18T11:09:33.677Z,26.01
2023-05-18T11:14:32.761Z,26.26
2023-05-18T11:19:27.753Z,26.30
2023-05-18T11:24:31.086Z,26.25
2023-05-18T11:29:46.771Z,26.09
2023-05-18T11:34:45.689Z,25.90
2023-05-18T11:39:44.799Z,25.64
2023-05-18T11:44:53.078Z,25.44
2023-05-18T11:49:46.833Z,25.26
2023-05-18T11:54:54.991Z,25.52
2023-05-18T11:59:48.570Z,25.56
2023-05-18T12:04:46.884Z,25.20
2023-05-18T12:09:43.109Z,25.16
2023-05-18T12:14:35.931Z,25.53
2023-05-18T12:19:27.742Z,25.72
2023-05-18T12:24:20.985Z,25.47
2023-05-18T12:29:19.801Z,25.29
2023-05-18T12:34:12.197Z,25.12
2023-05-18T12:39:04.271Z,25.05
2023-05-18T12:43:55.986Z,25.10
2023-05-18T12:48:47.840Z,25.09
2023-05-18T12:53:43.245Z,25.05
2023-05-18T12:58:35.030Z,25.14
2023-05-18T13:03:33.737Z,24.98
2023-05-18T13:08:25.673Z,24.89
2023-05-18T13:13:17.375Z,24.89
2023-05-18T13:18:11.245Z,24.75
2023-05-18T13:23:05.697Z,24.62
2023-05-18T13:27:57.678Z,24.43
2023-05-18T13:32:51.120Z,24.35
2023-05-18T13:37:42.861Z,24.20
2023-05-18T13:42:34.772Z,24.10
2023-05-18T13:47:26.482Z,23.92
2023-05-18T13:52:18.217Z,23.89
2023-05-18T13:57:09.989Z,23.79
2023-05-18T14:02:02.270Z,23.69
2023-05-18T14:06:55.840Z,23.54
2023-05-18T14:11:47.501Z,23.35
2023-05-18T14:16:39.213Z,23.34
2023-05-18T14:21:31.416Z,23.18
2023-05-18T14:26:23.403Z,23.21
2023-05-18T14:31:15.133Z,23.06
2023-05-18T14:36:06.836Z,22.97
2023-05-18T14:40:58.453Z,22.86
2023-05-18T14:46:00.222Z,22.81
2023-05-18T14:50:59.517Z,22.74
2023-05-18T14:55:51.536Z,22.83
2023-05-18T15:00:43.448Z,22.97
2023-05-18T15:05:35.340Z,23.03
2023-05-18T15:10:27.411Z,23.01
2023-05-18T15:15:19.073Z,23.05
2023-05-18T15:20:11.250Z,23.05
2023-05-18T15:25:05.392Z,23.00
2023-05-18T15:29:57.227Z,22.95
2023-05-18T15:34:48.867Z,22.80
2023-05-18T15:39:40.572Z,22.89
2023-05-18T15:44:32.217Z,22.97
2023-05-18T15:49:25.508Z,23.03
2023-05-18T15:54:18.002Z,22.99
2023-05-18T15:59:09.907Z,22.94
2023-05-18T16:04:01.582Z,23.04
2023-05-18T16:08:53.236Z,22.98
2023-05-18T16:13:44.804Z,22.78
2023-05-18T16:18:36.901Z,22.74
2023-05-18T16:23:28.558Z,22.63
2023-05-18T16:28:20.135Z,22.60
2023-05-18T16:33:11.985Z,22.51
2023-05-18T16:38:03.692Z,22.34
2023-05-18T16:42:55.431Z,22.08
2023-05-18T16:47:47.084Z,21.76
2023-05-18T16:52:38.773Z,21.66
2023-05-18T16:57:31.059Z,21.37
2023-05-18T17:02:24.473Z,21.27
2023-05-18T17:07:16.340Z,21.02
2023-05-18T17:12:11.736Z,20.78
2023-05-18T17:17:04.244Z,20.65
2023-05-18T17:21:56.493Z,20.45
2023-05-18T17:26:48.146Z,20.42
2023-05-18T17:31:39.799Z,20.35
2023-05-18T17:41:23.047Z,20.08
2023-05-18T17:46:14.741Z,19.98
2023-05-18T17:51:07.223Z,19.87
2023-05-18T17:55:58.869Z,19.68
2023-05-18T18:00:50.523Z,19.52
2023-05-18T18:05:42.182Z,19.41
2023-05-18T18:10:34.743Z,19.40
2023-05-18T18:15:27.558Z,19.39
2023-05-18T18:20:19.318Z,19.17
2023-05-18T18:25:11.169Z,19.07
2023-05-18T18:30:02.949Z,19.01
2023-05-18T18:34:54.627Z,18.87
2023-05-18T18:44:28.752Z,18.49
2023-05-18T18:49:20.610Z,18.38
2023-05-18T18:54:55.198Z,18.28
2023-05-18T18:59:46.806Z,18.20
2023-05-18T19:04:38.728Z,18.04
2023-05-18T19:09:35.598Z,17.94
2023-05-18T19:14:27.433Z,17.90
2023-05-18T19:19:19.210Z,17.71
2023-05-18T19:24:11.175Z,17.59
2023-05-18T19:29:02.816Z,17.49
2023-05-18T19:33:54.481Z,17.26
2023-05-18T19:38:51.149Z,17.02
2023-05-18T19:43:42.798Z,16.93
2023-05-18T19:48:34.472Z,16.85
2023-05-18T19:53:26.121Z,16.78
2023-05-18T19:58:18.189Z,16.73
2023-05-18T20:03:10.582Z,16.59
2023-05-18T20:08:03.027Z,16.59
2023-05-18T20:12:54.605Z,16.52
2023-05-18T20:17:46.284Z,16.46
2023-05-18T20:22:38.940Z,16.43
2023-05-18T20:27:30.763Z,16.23
2023-05-18T20:32:22.392Z,16.06
2023-05-18T20:37:14.354Z,15.95
2023-05-18T20:42:06.814Z,15.79
2023-05-18T20:47:01.079Z,15.62
2023-05-18T20:51:52.979Z,15.47
2023-05-18T20:56:44.776Z,15.32
2023-05-18T21:01:39.408Z,15.17
2023-05-18T21:06:32.574Z,15.07
2023-05-18T21:11:24.542Z,14.97
2023-05-18T21:16:16.456Z,14.82
2023-05-18T21:21:10.543Z,14.70
2023-05-18T21:26:02.334Z,14.61
2023-05-18T21:30:56.739Z,14.59
2023-05-18T21:35:48.417Z,14.51
2023-05-18T21:40:43.491Z,14.48
2023-05-18T21:45:35.807Z,14.42
2023-05-18T21:50:27.759Z,14.35
2023-05-18T21:55:19.443Z,14.32
2023-05-18T22:00:13.952Z,14.27
2023-05-18T22:05:06.033Z,14.21
2023-05-18T22:09:57.704Z,14.20
2023-05-18T22:14:49.357Z,14.20
2023-05-18T22:19:42.199Z,14.23
2023-05-18T22:24:33.904Z,14.23
2023-05-18T22:29:25.786Z,14.23
2023-05-18T22:34:17.410Z,14.23
2023-05-18T22:39:09.116Z,14.25
2023-05-18T22:44:00.904Z,14.26
2023-05-18T22:48:53.587Z,14.24
2023-05-18T22:53:45.441Z,14.15
2023-05-18T22:58:37.107Z,14.11
2023-05-18T23:03:28.715Z,14.07
2023-05-18T23:08:20.530Z,14.00
2023-05-18T23:13:16.236Z,13.91
2023-05-18T23:18:09.333Z,13.70
2023-05-18T23:23:01.578Z,13.64
2023-05-18T23:27:53.366Z,13.59
2023-05-18T23:32:46.848Z,13.62
2023-05-18T23:37:41.427Z,13.58
2023-05-18T23:42:33.268Z,13.55
2023-05-18T23:47:25.255Z,13.45
2023-05-18T23:52:22.941Z,13.42
2023-05-18T23:57:14.811Z,13.31
